Time;durP1;ratioP1;P1;durP2;ratioP2;P2;SDS_P1;SDS_P2;PMS_P1;PMS_P2;Temp;Humidity;BMP_temperature;BMP_pressure;BME280_temperature;BME280_humidity;BME280_pressure;Samples;Min_cycle;Max_cycle;Signal;HPM_P1;HPM_P2
2021/12/11 00:02:30;;;;;;;111.30;46.10;;;;;;;-2.12;99.08;98625.06;1617006;87;21572;-71
2021/12/11 00:04:58;;;;;;;113.32;46.13;;;;;;;-2.09;99.09;98614.78;1614390;87;20928;-71
2021/12/11 00:07:29;;;;;;;126.15;49.88;;;;;;;-2.12;99.07;98627.62;1569748;90;21018;-71
2021/12/11 00:10:16;;;;;;;120.08;48.00;;;;;;;-2.06;99.12;98630.09;1592764;88;20997;-71
2021/12/11 00:12:48;;;;;;;119.97;46.63;;;;;;;-1.99;99.02;98627.44;1592309;88;23890;-71
2021/12/11 00:15:20;;;;;;;121.45;50.25;;;;;;;-2.00;98.87;98633.44;1615940;87;21021;-71
2021/12/11 00:17:47;;;;;;;133.45;50.92;;;;;;;-1.98;98.90;98634.27;1616308;87;22832;-70
2021/12/11 00:20:25;;;;;;;122.47;49.48;;;;;;;-1.98;98.93;98649.61;1616333;87;20972;-71
2021/12/11 00:22:53;;;;;;;124.90;51.25;;;;;;;-1.98;98.92;98652.17;1615594;87;20957;-70
2021/12/11 00:25:20;;;;;;;124.42;48.50;;;;;;;-2.00;98.90;98652.18;1616602;87;21089;-71
2021/12/11 00:27:51;;;;;;;137.30;52.35;;;;;;;-2.01;99.02;98654.78;1617219;87;21015;-70
2021/12/11 00:30:26;;;;;;;135.70;52.33;;;;;;;-1.97;99.02;98658.97;1615259;87;20963;-70
2021/12/11 00:33:03;;;;;;;129.75;52.10;;;;;;;-1.96;99.03;98658.09;1615539;87;20981;-71
2021/12/11 00:35:30;;;;;;;132.18;50.48;;;;;;;-1.93;99.06;98658.05;1616778;87;21580;-71
2021/12/11 00:38:08;;;;;;;127.38;50.10;;;;;;;-1.90;99.05;98663.98;1616942;87;20948;-71
2021/12/11 00:40:36;;;;;;;121.77;50.23;;;;;;;-1.91;99.03;98670.39;1616472;86;21063;-71
2021/12/11 00:43:07;;;;;;;129.68;47.75;;;;;;;-1.93;99.04;98664.03;1616722;87;20958;-71
2021/12/11 00:45:38;;;;;;;121.97;48.90;;;;;;;-1.91;99.11;98671.67;1615798;87;20960;-70
2021/12/11 00:48:12;;;;;;;130.67;49.93;;;;;;;-1.90;99.03;98672.94;1617268;86;20971;-71
2021/12/11 00:50:44;;;;;;;126.12;48.33;;;;;;;-1.86;98.91;98676.30;1616686;87;21004;-71
2021/12/11 00:53:28;;;;;;;126.78;47.20;;;;;;;-1.86;98.93;98682.69;1615803;87;20870;-71
2021/12/11 00:56:08;;;;;;;123.28;49.30;;;;;;;-1.87;98.87;98681.01;1616929;87;20977;-71
2021/12/11 00:58:37;;;;;;;120.00;48.38;;;;;;;-1.92;98.87;98682.34;1615973;87;20980;-71
2021/12/11 01:01:12;;;;;;;119.40;48.05;;;;;;;-1.95;98.91;98680.27;1627310;86;20947;-71
2021/12/11 01:03:50;;;;;;;120.67;50.35;;;;;;;-1.97;99.01;98684.55;1625856;86;21011;-71
2021/12/11 01:06:28;;;;;;;105.87;45.30;;;;;;;-1.98;99.06;98694.38;1627629;86;22084;-71
2021/12/11 01:09:00;;;;;;;116.90;47.50;;;;;;;-2.03;99.15;98694.43;1627792;86;21523;-71
2021/12/11 01:11:42;;;;;;;122.30;48.48;;;;;;;-2.06;99.19;98703.42;1628980;86;20940;-71
2021/12/11 01:14:35;;;;;;;113.17;45.58;;;;;;;-2.06;99.28;98706.83;1606058;87;20962;-71
2021/12/11 01:17:05;;;;;;;101.20;43.05;;;;;;;-2.09;99.29;98714.53;1627529;86;20957;-71
2021/12/11 01:19:37;;;;;;;118.93;45.20;;;;;;;-2.09;99.33;98719.66;1609733;88;21049;-71
2021/12/11 01:22:20;;;;;;;111.68;45.52;;;;;;;-2.10;99.29;98720.53;1613907;88;20940;-71
2021/12/11 01:24:43;;;;;;;108.12;45.08;;;;;;;-2.09;99.36;98722.21;1573437;89;20950;-70
2021/12/11 01:27:14;;;;;;;105.07;45.03;;;;;;;-2.08;99.36;98726.45;1595162;88;20988;-71
2021/12/11 01:29:45;;;;;;;107.70;45.38;;;;;;;-2.08;99.30;98731.56;1595846;88;20952;-71
2021/12/11 01:32:14;;;;;;;111.57;42.80;;;;;;;-2.09;99.28;98738.84;1595507;88;21478;-71
2021/12/11 01:34:43;;;;;;;102.82;40.88;;;;;;;-2.07;99.35;98740.95;1588125;88;21469;-71
2021/12/11 01:37:11;;;;;;;107.72;45.33;;;;;;;-2.09;99.24;98740.11;1608701;87;20949;-71
2021/12/11 01:39:40;;;;;;;113.92;45.20;;;;;;;-2.12;99.19;98740.16;1578545;89;20949;-71
2021/12/11 01:42:11;;;;;;;99.83;42.00;;;;;;;-2.12;99.19;98747.83;1597651;88;21007;-71
2021/12/11 01:44:41;;;;;;;110.30;44.25;;;;;;;-2.12;99.20;98747.83;1597816;88;21164;-71
2021/12/11 01:47:13;;;;;;;93.82;42.13;;;;;;;-2.11;99.25;98752.50;1597913;88;21005;-71
2021/12/11 01:49:43;;;;;;;103.47;44.42;;;;;;;-2.12;99.19;98755.50;1598597;88;21582;-71
2021/12/11 01:52:19;;;;;;;99.17;44.23;;;;;;;-2.14;99.21;98752.11;1598119;88;20963;-71
2021/12/11 01:54:48;;;;;;;106.43;42.78;;;;;;;-2.15;99.27;98752.98;1611807;87;20948;-71
2021/12/11 01:57:23;;;;;;;100.18;40.95;;;;;;;-2.12;99.31;98752.94;1594491;88;20977;-71
2021/12/11 01:59:57;;;;;;;89.45;39.35;;;;;;;-2.12;99.30;98754.22;1597397;88;21004;-71
2021/12/11 02:02:32;;;;;;;87.78;42.53;;;;;;;-2.11;99.19;98757.19;1600563;88;21137;-71
2021/12/11 02:05:00;;;;;;;86.67;40.60;;;;;;;-2.13;99.12;98760.22;1601121;88;21723;-71
2021/12/11 02:07:43;;;;;;;92.33;43.48;;;;;;;-2.14;99.10;98764.89;1599512;88;21042;-71
2021/12/11 02:10:18;;;;;;;99.05;42.03;;;;;;;-2.14;99.09;98770.01;1601478;88;21065;-71
2021/12/11 02:12:45;;;;;;;93.42;42.73;;;;;;;-2.14;99.17;98770.45;1599792;88;21545;-70
2021/12/11 02:15:20;;;;;;;95.97;39.80;;;;;;;-2.14;99.20;98764.89;1600657;88;21017;-71
2021/12/11 02:17:56;;;;;;;105.12;40.58;;;;;;;-2.11;99.15;98761.45;1618667;86;20984;-71
2021/12/11 02:20:35;;;;;;;102.97;43.42;;;;;;;-2.10;99.10;98770.81;1627335;86;20954;-71
2021/12/11 02:23:04;;;;;;;90.72;39.83;;;;;;;-2.10;99.05;98761.45;1624812;86;21013;-70
2021/12/11 02:25:35;;;;;;;76.37;37.83;;;;;;;-2.10;99.05;98764.02;1629185;86;20994;-71
2021/12/11 02:28:25;;;;;;;84.13;38.58;;;;;;;-2.13;99.01;98765.73;1626343;86;20947;-70
2021/12/11 02:31:05;;;;;;;84.30;39.00;;;;;;;-2.14;99.01;98777.68;1603506;86;21493;-70
2021/12/11 02:33:52;;;;;;;83.97;38.85;;;;;;;-2.13;99.06;98784.51;1625912;86;20980;-70
2021/12/11 02:36:30;;;;;;;81.82;37.30;;;;;;;-2.14;99.04;98786.63;1626244;86;20932;-71
2021/12/11 02:39:13;;;;;;;84.00;39.85;;;;;;;-2.14;99.03;98790.47;1626492;86;21509;-71
2021/12/11 02:41:57;;;;;;;83.47;38.83;;;;;;;-2.15;99.03;98799.45;1628159;86;20997;-71
2021/12/11 02:44:32;;;;;;;85.65;39.63;;;;;;;-2.16;99.03;98796.02;1628618;86;20988;-71
2021/12/11 02:47:13;;;;;;;88.95;39.35;;;;;;;-2.18;99.00;98797.77;1623639;86;21023;-71
2021/12/11 02:49:54;;;;;;;78.92;38.42;;;;;;;-2.18;99.07;98791.81;1618340;86;21922;-71
2021/12/11 02:52:26;;;;;;;84.85;40.33;;;;;;;-2.19;99.09;98797.34;1627911;86;20980;-70
2021/12/11 02:55:00;;;;;;;93.03;40.28;;;;;;;-2.19;99.09;98801.17;1627191;87;21958;-71
2021/12/11 02:57:35;;;;;;;92.97;39.83;;;;;;;-2.17;99.08;98807.13;1625847;86;21018;-71
2021/12/11 03:00:19;;;;;;;90.28;40.50;;;;;;;-2.17;99.07;98804.57;1627508;86;21005;-71
2021/12/11 03:02:59;;;;;;;85.75;39.42;;;;;;;-2.18;99.07;98810.56;1627882;86;20984;-71
2021/12/11 03:05:25;;;;;;;85.32;38.50;;;;;;;-2.20;99.03;98808.45;1627049;86;20925;-70
2021/12/11 03:07:52;;;;;;;85.53;39.73;;;;;;;-2.21;99.04;98806.76;1626756;86;20919;-70
2021/12/11 03:10:22;;;;;;;96.02;43.30;;;;;;;-2.21;99.08;98811.00;1625584;86;20940;-70
2021/12/11 03:12:49;;;;;;;87.65;40.40;;;;;;;-2.16;99.22;98814.36;1620002;86;21491;-70
2021/12/11 03:15:18;;;;;;;78.47;34.53;;;;;;;-2.13;99.17;98808.81;1622055;86;20954;-70
2021/12/11 03:17:45;;;;;;;80.10;35.92;;;;;;;-2.11;99.08;98805.78;1625539;86;21064;-70
2021/12/11 03:20:15;;;;;;;;;;;;;;;-2.12;98.97;98807.94;1629580;86;21083;-70
2021/12/11 03:22:43;;;;;;;85.20;35.05;;;;;;;-2.13;98.90;98815.20;1628375;86;20125;-70
2021/12/11 03:25:14;;;;;;;76.65;35.48;;;;;;;-2.15;98.87;98811.80;1627275;86;21040;-70
2021/12/11 03:27:41;;;;;;;89.52;39.10;;;;;;;-2.14;98.83;98814.77;1626768;86;21792;-70
2021/12/11 03:30:12;;;;;;;88.80;39.13;;;;;;;-2.16;98.84;98812.65;1626642;86;20908;-70
2021/12/11 03:32:39;;;;;;;82.35;37.23;;;;;;;-2.14;98.96;98814.77;1628860;86;21059;-70
2021/12/11 03:35:08;;;;;;;78.40;35.28;;;;;;;-2.11;98.95;98818.56;1627946;86;20956;-70
2021/12/11 03:37:36;;;;;;;65.00;30.68;;;;;;;-2.12;98.76;98823.28;1626197;86;20923;-70
2021/12/11 03:40:06;;;;;;;72.10;32.23;;;;;;;-2.18;98.54;98824.63;1628545;86;21608;-70
2021/12/11 03:42:37;;;;;;;74.95;32.98;;;;;;;-2.26;98.51;98829.81;1605763;86;21444;-70
2021/12/11 03:45:09;;;;;;;74.40;30.90;;;;;;;-2.28;98.55;98830.69;1627006;86;21574;-70
2021/12/11 03:47:41;;;;;;;71.35;31.23;;;;;;;-2.32;98.55;98834.15;1629254;86;20976;-70
2021/12/11 03:50:12;;;;;;;74.37;30.80;;;;;;;-2.35;98.52;98839.27;1628010;86;21474;-70
2021/12/11 03:52:43;;;;;;;69.95;33.38;;;;;;;-2.37;98.57;98841.01;1628433;86;20936;-70
2021/12/11 03:55:13;;;;;;;83.45;33.88;;;;;;;-2.38;98.65;98852.08;1628573;86;20972;-70
2021/12/11 03:57:42;;;;;;;76.40;34.18;;;;;;;-2.38;98.74;98850.80;1628291;86;20916;-71
2021/12/11 04:00:14;;;;;;;71.28;31.93;;;;;;;-2.39;98.73;98850.39;1627094;86;21009;-70
2021/12/11 04:02:44;;;;;;;66.05;32.30;;;;;;;-2.40;98.69;98857.66;1620267;87;20972;-70
2021/12/11 04:05:11;;;;;;;76.82;33.40;;;;;;;-2.44;98.65;98852.14;1616941;88;20998;-70
2021/12/11 04:07:41;;;;;;;;;;;;;;;-2.45;98.66;98858.13;1598611;88;20967;-70
2021/12/11 04:10:11;;;;;;;74.07;29.55;;;;;;;-2.45;98.75;98860.67;1584336;89;20108;-70
2021/12/11 04:12:37;;;;;;;89.07;32.95;;;;;;;-2.47;98.79;98864.08;1601088;87;20964;-70
2021/12/11 04:15:06;;;;;;;90.03;34.13;;;;;;;-2.44;98.80;98861.92;1618499;87;20973;-70
2021/12/11 04:17:33;;;;;;;83.92;33.78;;;;;;;-2.45;98.80;98859.40;1618883;87;21036;-70
2021/12/11 04:20:04;;;;;;;77.63;33.17;;;;;;;-2.45;98.71;98860.67;1620852;88;20971;-70
2021/12/11 04:22:31;;;;;;;81.92;34.25;;;;;;;-2.47;98.73;98867.91;1617784;87;20947;-70
2021/12/11 04:24:58;;;;;;;76.92;33.00;;;;;;;-2.49;98.75;98870.94;1569555;89;20988;-70
2021/12/11 04:27:25;;;;;;;69.10;30.27;;;;;;;-2.49;98.80;98870.94;1597171;88;20983;-70
2021/12/11 04:29:53;;;;;;;73.22;31.60;;;;;;;-2.51;98.75;98880.75;1587293;89;21195;-70
2021/12/11 04:32:22;;;;;;;79.32;34.20;;;;;;;-2.53;98.67;98876.91;1620644;87;21399;-70
2021/12/11 04:34:49;;;;;;;81.63;33.53;;;;;;;-2.56;98.66;98884.61;1620348;87;20960;-70
2021/12/11 04:37:20;;;;;;;;;;;;;;;-2.55;98.69;98888.88;1622888;87;20922;-70
2021/12/11 04:39:56;;;;;;;69.00;29.07;;;;;;;-2.57;98.71;98888.03;1605717;87;20151;-70
2021/12/11 04:42:35;;;;;;;60.05;28.05;;;;;;;-2.59;98.66;98889.75;1596273;88;21488;-70
2021/12/11 04:44:49;;;;;;;63.13;28.98;;;;;;;-2.65;98.54;98901.73;1595182;88;20970;-70
2021/12/11 04:47:34;;;;;;;57.88;28.30;;;;;;;-2.71;98.58;98897.52;1618544;87;20964;-70
2021/12/11 04:50:04;;;;;;;57.83;27.22;;;;;;;-2.75;98.60;98900.94;1613412;87;20996;-70
2021/12/11 04:52:34;;;;;;;59.60;28.57;;;;;;;-2.79;98.66;98901.83;1619450;87;20992;-70
2021/12/11 04:55:24;;;;;;;63.17;28.98;;;;;;;-2.80;98.73;98907.77;1616524;87;22215;-70
2021/12/11 04:57:56;;;;;;;67.62;29.63;;;;;;;-2.79;98.77;98901.83;1616815;87;20936;-70
2021/12/11 05:01:27;;;;;;;70.62;29.63;;;;;;;-2.78;98.74;98900.95;1604978;87;21031;-70
2021/12/11 05:08:58;;;;;;;68.60;30.12;;;;;;;-2.74;98.78;98920.53;1621791;87;20983;-70
2021/12/11 05:10:31;;;;;;;69.77;31.95;;;;;;;-2.75;98.74;98916.27;1608936;87;21035;-70
2021/12/11 05:12:56;;;;;;;68.10;30.35;;;;;;;-2.73;98.81;98915.83;1607799;87;21016;-69
2021/12/11 05:15:28;;;;;;;80.07;32.35;;;;;;;-2.72;98.74;98921.35;1598364;88;20996;-70
2021/12/11 05:17:56;;;;;;;61.18;28.57;;;;;;;-2.72;98.69;98922.62;1615532;87;21532;-70
2021/12/11 05:20:27;;;;;;;73.28;31.52;;;;;;;-2.71;98.70;98925.63;1618773;87;21014;-70
2021/12/11 05:22:54;;;;;;;73.55;29.87;;;;;;;-2.73;98.64;98923.50;1618287;87;21523;-70
2021/12/11 05:25:21;;;;;;;81.02;32.63;;;;;;;-2.73;98.59;98927.33;1620198;87;20928;-70
2021/12/11 05:27:48;;;;;;;89.85;36.03;;;;;;;-2.72;98.62;98921.35;1618602;87;21074;-70
2021/12/11 05:30:25;;;;;;;85.25;32.98;;;;;;;-2.69;98.74;98918.77;1609790;87;20968;-69
2021/12/11 05:32:53;;;;;;;71.40;29.30;;;;;;;-2.63;98.85;98918.76;1611498;87;20970;-70
2021/12/11 05:35:20;;;;;;;58.95;25.90;;;;;;;-2.61;98.68;98922.12;1596894;88;28058;-70
2021/12/11 05:37:48;;;;;;;51.63;25.50;;;;;;;-2.63;98.54;131456.73;1596663;88;20933;-70
2021/12/11 05:40:19;;;;;;;58.80;25.17;;;;;;;191.41;100.00;-24516.66;1620516;87;21488;-70
2021/12/11 05:42:47;;;;;;;60.70;27.27;;;;;;;191.41;100.00;-24516.66;1620412;87;20998;-70
2021/12/11 05:45:14;;;;;;;58.70;24.10;;;;;;;191.41;100.00;-24516.66;1620222;87;21480;-70
2021/12/11 05:47:42;;;;;;;62.48;27.10;;;;;;;-143.82;100.00;-24516.66;1620872;87;21448;-70
2021/12/11 05:50:14;;;;;;;60.58;26.82;;;;;;;191.41;100.00;-24516.66;1617145;87;20990;-70
2021/12/11 05:52:41;;;;;;;66.95;28.35;;;;;;;-2.89;98.06;98946.16;1620515;87;20940;-71
2021/12/11 05:55:13;;;;;;;65.35;28.85;;;;;;;191.41;100.00;-24516.66;1621226;87;20974;-70
2021/12/11 05:57:54;;;;;;;69.47;29.20;;;;;;;-143.82;100.00;114165.23;1610140;87;20993;-70
2021/12/11 06:00:22;;;;;;;70.08;28.27;;;;;;;191.41;100.00;193307.98;1620352;87;20914;-70
2021/12/11 06:02:56;;;;;;;70.30;30.40;;;;;;;-143.82;100.00;114165.23;1626962;86;20953;-70
2021/12/11 06:12:47;;;;;;;75.10;29.67;;;;;;;-143.82;100.00;114165.23;1629559;86;20983;-70
2021/12/11 06:16:01;;;;;;;78.62;32.05;;;;;;;-2.97;98.30;98962.39;1627858;86;21504;-70
2021/12/11 06:20:19;;;;;;;71.80;30.68;;;;;;;-143.82;100.00;114165.23;1629785;86;21880;-70
2021/12/11 06:22:47;;;;;;;73.92;30.97;;;;;;;-2.97;98.30;98962.39;1627758;86;20964;-70
2021/12/11 06:25:19;;;;;;;71.50;28.92;;;;;;;-3.08;98.38;98974.36;1627570;86;21062;-70
2021/12/11 06:27:47;;;;;;;50.83;24.35;;;;;;;-3.10;98.38;98973.52;1623860;86;20977;-70
2021/12/11 06:30:15;;;;;;;74.45;29.25;;;;;;;-3.12;98.25;98975.22;1626372;86;20967;-70
2021/12/11 06:32:44;;;;;;;62.40;27.70;;;;;;;-3.13;98.38;98983.74;1601507;88;21120;-70
2021/12/11 06:35:22;;;;;;;76.95;33.15;;;;;;;-3.13;98.29;98983.74;1625106;86;20901;-70
2021/12/11 06:37:49;;;;;;;70.50;29.87;;;;;;;-3.14;98.26;98985.86;1628451;86;21026;-70
2021/12/11 06:40:16;;;;;;;79.45;31.82;;;;;;;-3.17;98.22;98994.81;1627073;86;21496;-70
2021/12/11 06:42:44;;;;;;;89.03;34.05;;;;;;;-3.20;98.18;99011.42;1627639;86;21581;-70
2021/12/11 06:45:11;;;;;;;127.15;58.58;;;;;;;-3.25;98.25;99018.23;1626158;86;21368;-70
2021/12/11 06:47:38;;;;;;;223.38;130.65;;;;;;;-3.28;98.32;99014.42;1627417;86;21393;-70
2021/12/11 06:50:08;;;;;;;120.05;57.70;;;;;;;-3.31;98.43;99011.88;1624933;86;20973;-70
2021/12/11 06:52:35;;;;;;;138.25;69.53;;;;;;;-3.28;98.52;99022.08;1626242;86;20983;-70
2021/12/11 06:55:03;;;;;;;132.90;67.20;;;;;;;-3.27;98.57;99025.08;1628726;86;21439;-70
2021/12/11 06:57:30;;;;;;;140.85;72.85;;;;;;;-3.27;98.54;99033.58;1627051;86;20941;-70
2021/12/11 06:59:57;;;;;;;202.40;148.17;;;;;;;-3.29;98.46;99033.16;1630035;86;21517;-70
2021/12/11 07:02:41;;;;;;;156.40;102.63;;;;;;;-143.82;100.00;114297.92;1619597;86;20928;-70
2021/12/11 07:06:53;;;;;;;251.47;188.27;;;;;;;-143.82;100.00;114165.23;1617472;87;21046;-70
2021/12/11 07:09:23;;;;;;;324.82;250.40;;;;;;;-3.29;98.38;99038.27;1614939;87;20949;-70
2021/12/11 07:11:54;;;;;;;393.67;314.02;;;;;;;-143.82;100.00;114165.23;1613964;87;20942;-70
2021/12/11 07:14:23;;;;;;;378.20;296.02;;;;;;;-3.33;98.35;99041.66;1617902;86;21068;-70
2021/12/11 07:16:51;;;;;;;210.48;145.25;;;;;;;-3.31;98.46;99054.00;1618011;87;21382;-70
2021/12/11 07:19:18;;;;;;;164.72;100.20;;;;;;;-3.32;98.54;99061.25;1618521;87;21734;-70
2021/12/11 07:21:50;;;;;;;114.17;55.30;;;;;;;-3.30;98.64;99062.10;1619640;87;20966;-70
2021/12/11 07:24:16;;;;;;;115.70;52.43;;;;;;;-3.28;98.64;99065.48;1615295;88;21033;-69
2021/12/11 07:26:42;;;;;;;;;;;;;;;-3.23;98.67;99070.16;1619055;87;21468;-69
2021/12/11 07:29:14;;;;;;;97.85;42.15;;;;;;;-3.22;98.60;99078.23;1617345;87;20449;-69
